Time;durP1;ratioP1;P1;durP2;ratioP2;P2;SDS_P1;SDS_P2;PMS_P1;PMS_P2;Temp;Humidity;BMP_temperature;BMP_pressure;BME280_temperature;BME280_humidity;BME280_pressure;Samples;Min_cycle;Max_cycle;Signal;HPM_P1;HPM_P2
2023/12/01 00:02:36;;;;;;;83.40;40.40;;;;;;;0.07;80.07;98892.02;130263;1268;98004;-81
2023/12/01 00:05:41;;;;;;;91.40;42.50;;;;;;;0.13;80.06;98889.33;130250;1270;98034;-81
2023/12/01 00:08:47;;;;;;;95.50;43.00;;;;;;;0.16;79.96;98884.36;130686;1264;98086;-82
2023/12/01 00:11:53;;;;;;;90.20;43.20;;;;;;;0.18;79.95;98881.75;130239;1268;98092;-82
2023/12/01 00:14:58;;;;;;;87.50;41.10;;;;;;;0.16;79.96;98876.29;130187;1264;97989;-80
2023/12/01 00:18:04;;;;;;;85.80;41.60;;;;;;;0.15;79.98;98880.38;130244;1265;97962;-81
2023/12/01 00:21:10;;;;;;;86.60;42.20;;;;;;;0.16;80.13;98889.45;130247;1269;98051;-81
2023/12/01 00:24:15;;;;;;;163.70;64.20;;;;;;;0.16;80.18;98895.02;130216;1269;98457;-81
2023/12/01 00:27:21;;;;;;;210.90;64.80;;;;;;;0.17;80.35;98899.10;130035;1268;99249;-81
2023/12/01 00:30:29;;;;;;;124.00;48.60;;;;;;;0.12;79.99;98896.42;130126;1278;99154;-81
2023/12/01 00:33:35;;;;;;;114.60;46.50;;;;;;;0.01;80.05;98900.55;130297;1268;98068;-80
2023/12/01 00:36:40;;;;;;;126.50;46.00;;;;;;;-0.02;80.47;98898.88;130191;1268;97984;-82
2023/12/01 00:39:46;;;;;;;99.00;42.30;;;;;;;0.00;80.28;98900.45;130267;1277;99337;-81
2023/12/01 00:42:52;;;;;;;117.00;43.30;;;;;;;0.03;80.37;98903.72;130225;1267;98123;-81
2023/12/01 00:45:58;;;;;;;106.70;40.30;;;;;;;0.08;80.31;98909.13;130052;1264;97997;-81
2023/12/01 00:49:03;;;;;;;120.40;44.80;;;;;;;0.15;80.28;98908.20;130118;1279;98767;-81
2023/12/01 00:52:09;;;;;;;109.40;43.60;;;;;;;0.18;80.13;98902.02;130226;1264;98456;-81
2023/12/01 00:55:15;;;;;;;115.90;45.50;;;;;;;0.22;80.23;98899.27;130039;1267;98047;-81
2023/12/01 00:58:20;;;;;;;110.70;44.30;;;;;;;0.25;80.21;98895.39;130048;1277;97991;-81
2023/12/01 01:01:26;;;;;;;108.60;43.40;;;;;;;0.24;80.01;98892.11;130284;1267;99199;-81
2023/12/01 01:04:31;;;;;;;112.50;44.40;;;;;;;0.24;80.00;98894.78;130231;1264;98046;-81
2023/12/01 01:07:37;;;;;;;94.00;40.00;;;;;;;0.21;79.94;98890.25;130381;1267;98457;-81
2023/12/01 01:10:42;;;;;;;87.70;39.20;;;;;;;0.15;79.89;98895.07;130249;1277;98864;-81
2023/12/01 01:13:48;;;;;;;86.50;39.00;;;;;;;0.10;79.90;98886.90;130216;1263;97974;-81
2023/12/01 01:16:53;;;;;;;87.90;38.60;;;;;;;0.09;79.91;98880.34;130101;1264;98054;-81
2023/12/01 01:19:59;;;;;;;92.60;41.40;;;;;;;0.04;79.96;98879.15;130254;1268;99137;-80
2023/12/01 01:23:04;;;;;;;98.70;42.80;;;;;;;-0.11;79.77;98882.46;130217;1263;97985;-81
2023/12/01 01:26:10;;;;;;;104.90;43.40;;;;;;;-0.20;80.07;98882.29;130269;1267;99078;-82
2023/12/01 01:29:16;;;;;;;93.00;40.90;;;;;;;-0.21;80.16;98879.71;130225;1265;97993;-81
2023/12/01 01:32:21;;;;;;;103.50;43.20;;;;;;;-0.23;80.19;98880.38;130179;1267;98047;-80
2023/12/01 01:35:27;;;;;;;106.40;43.50;;;;;;;-0.23;80.09;98891.59;130240;1277;98395;-81
2023/12/01 01:38:33;;;;;;;98.10;40.80;;;;;;;-0.24;80.16;98898.62;130188;1267;99164;-81
2023/12/01 01:41:39;;;;;;;74.50;32.80;;;;;;;-0.23;80.22;98901.67;129906;1267;99023;-81
2023/12/01 01:44:45;;;;;;;76.40;35.60;;;;;;;-0.21;79.98;98903.47;130254;1267;98990;-80
2023/12/01 01:47:52;;;;;;;69.30;32.90;;;;;;;-0.19;80.06;98898.10;130261;1267;97987;-81
2023/12/01 01:50:58;;;;;;;71.80;34.20;;;;;;;-0.20;79.95;98893.77;130265;1267;99190;-81
2023/12/01 01:54:04;;;;;;;71.00;34.00;;;;;;;-0.23;79.94;98892.64;130117;1279;97981;-81
2023/12/01 01:57:10;;;;;;;72.30;33.50;;;;;;;-0.30;79.84;98889.47;130166;1269;98065;-81
2023/12/01 02:00:18;;;;;;;67.50;32.90;;;;;;;-0.37;79.69;98882.92;130245;1267;99169;-81
2023/12/01 02:03:24;;;;;;;66.60;32.90;;;;;;;-0.48;79.79;98882.85;130328;1263;98019;-81
2023/12/01 02:06:32;;;;;;;66.60;34.50;;;;;;;-0.57;79.53;98884.05;130155;1267;98068;-81
2023/12/01 02:09:38;;;;;;;65.10;32.90;;;;;;;-0.74;79.20;98882.31;130617;1263;99151;-81
2023/12/01 02:12:45;;;;;;;67.50;33.90;;;;;;;-0.88;79.40;98873.97;130173;1267;97961;-81
2023/12/01 02:15:51;;;;;;;67.80;31.50;;;;;;;-0.99;79.14;98875.33;130229;1263;97993;-81
2023/12/01 02:18:57;;;;;;;67.00;32.40;;;;;;;-1.15;79.08;98877.20;130328;1265;99180;-81
2023/12/01 02:22:02;;;;;;;68.00;32.60;;;;;;;-1.28;79.39;98879.48;130088;1264;98063;-81
2023/12/01 02:25:09;;;;;;;64.40;31.40;;;;;;;-1.37;79.26;98880.89;130283;1263;99154;-82
2023/12/01 02:28:16;;;;;;;69.80;32.40;;;;;;;-1.45;79.05;98884.58;130259;1267;99137;-82
2023/12/01 02:31:22;;;;;;;68.60;33.60;;;;;;;-1.53;79.11;98889.89;130317;1270;98774;-81
2023/12/01 02:34:27;;;;;;;67.20;32.00;;;;;;;-1.59;79.05;98891.52;130235;1277;98021;-81
2023/12/01 02:37:33;;;;;;;67.50;31.70;;;;;;;-1.66;78.72;98891.83;130118;1268;97997;-80
2023/12/01 02:40:42;;;;;;;67.90;32.40;;;;;;;-1.76;78.35;98894.77;130022;1267;99070;-81
2023/12/01 02:43:48;;;;;;;82.80;36.20;;;;;;;-1.83;78.74;98898.08;130237;1268;98058;-82
2023/12/01 02:46:54;;;;;;;91.80;38.00;;;;;;;-1.88;78.63;98905.75;130289;1263;99176;-80
2023/12/01 02:49:59;;;;;;;88.00;39.20;;;;;;;-1.91;78.53;98911.01;130013;1268;98838;-81
2023/12/01 02:53:06;;;;;;;78.50;36.00;;;;;;;-1.91;78.35;98911.02;130107;1267;98447;-79
2023/12/01 02:56:12;;;;;;;84.20;35.10;;;;;;;-1.90;78.28;98915.51;129886;1264;99219;-80
2023/12/01 02:59:18;;;;;;;87.90;37.80;;;;;;;-1.94;78.24;98912.98;130006;1270;101442;-80
2023/12/01 03:02:27;;;;;;;76.00;34.30;;;;;;;-1.96;78.00;98920.56;130195;1268;99160;-80
2023/12/01 03:05:33;;;;;;;76.30;33.50;;;;;;;-1.98;78.17;98922.31;129986;1263;98039;-80
2023/12/01 03:08:39;;;;;;;75.30;35.20;;;;;;;-2.03;77.88;98920.23;130223;1264;98002;-80
2023/12/01 03:11:46;;;;;;;77.40;34.30;;;;;;;-2.09;77.88;98920.48;130070;1268;99192;-79
2023/12/01 03:14:52;;;;;;;82.40;34.70;;;;;;;-2.18;77.60;98923.66;130109;1268;98029;-80
2023/12/01 03:17:58;;;;;;;73.30;33.70;;;;;;;-2.27;77.68;98918.21;130058;1267;99180;-79
2023/12/01 03:21:12;;;;;;;73.80;33.70;;;;;;;-2.36;77.64;98926.11;129985;1280;99042;-80
2023/12/01 03:24:18;;;;;;;72.10;33.30;;;;;;;-2.42;77.51;98930.20;130053;1264;98095;-80
2023/12/01 03:27:25;;;;;;;77.50;33.70;;;;;;;-2.52;77.47;98937.11;129993;1264;99468;-80
2023/12/01 03:30:31;;;;;;;75.40;32.20;;;;;;;-2.58;77.18;98941.15;130048;1264;99046;-80
2023/12/01 03:33:36;;;;;;;79.00;33.20;;;;;;;-2.62;77.34;98938.48;130044;1264;97976;-81
2023/12/01 03:36:42;;;;;;;83.60;34.40;;;;;;;-2.68;77.37;98939.61;130049;1268;98077;-80
2023/12/01 03:39:47;;;;;;;84.00;35.40;;;;;;;-2.74;77.17;98951.64;130141;1267;98776;-80
2023/12/01 03:42:53;;;;;;;130.00;43.90;;;;;;;-2.80;76.85;98953.20;130266;1267;101467;-80
2023/12/01 03:45:58;;;;;;;135.60;44.50;;;;;;;-2.86;76.82;98954.31;129992;1270;98755;-80
2023/12/01 03:49:04;;;;;;;87.70;36.10;;;;;;;-2.90;77.04;98948.00;130007;1269;99159;-81
2023/12/01 03:52:11;;;;;;;89.00;35.90;;;;;;;-2.95;76.83;98949.89;129986;1265;99142;-80
2023/12/01 03:55:16;;;;;;;86.00;35.40;;;;;;;-2.98;76.84;98945.55;129998;1267;98981;-81
2023/12/01 03:58:24;;;;;;;87.10;34.40;;;;;;;-3.03;76.57;98939.23;129999;1268;97973;-81
2023/12/01 04:01:30;;;;;;;83.60;35.30;;;;;;;-3.07;76.65;98934.48;129796;1269;99154;-81
2023/12/01 04:04:35;;;;;;;78.30;33.90;;;;;;;-3.14;76.41;98929.53;130077;1264;99124;-79
2023/12/01 04:07:41;;;;;;;83.60;34.40;;;;;;;-3.20;76.43;98929.20;130365;1271;98649;-80
2023/12/01 04:10:47;;;;;;;104.20;39.90;;;;;;;-3.25;76.34;98919.83;129985;1270;99176;-81
2023/12/01 04:13:52;;;;;;;119.60;42.40;;;;;;;-3.31;76.36;98909.42;129997;1263;98061;-79
2023/12/01 04:17:08;;;;;;;114.40;40.60;;;;;;;-3.38;76.22;98910.15;129963;1280;97973;-80
2023/12/01 04:20:22;;;;;;;104.10;39.30;;;;;;;-3.42;76.33;98907.33;130299;1263;97989;-80
2023/12/01 04:23:29;;;;;;;176.30;54.00;;;;;;;-3.45;76.38;98908.59;129746;1263;99132;-79
2023/12/01 04:26:35;;;;;;;172.60;52.60;;;;;;;-3.47;76.14;98916.52;130126;1267;98071;-79
2023/12/01 04:29:40;;;;;;;92.00;36.80;;;;;;;-3.49;76.01;98927.59;130111;1267;97991;-81
2023/12/01 04:32:52;;;;;;;78.10;33.20;;;;;;;-3.50;76.11;98934.61;130111;1267;97988;-80
2023/12/01 04:35:58;;;;;;;77.10;32.90;;;;;;;-3.46;76.10;98939.77;130005;1278;99143;-80
2023/12/01 04:39:04;;;;;;;152.40;53.40;;;;;;;-3.41;76.15;98944.27;129993;1267;98714;-80
2023/12/01 04:42:10;;;;;;;116.80;43.40;;;;;;;-3.37;76.23;98943.31;130003;1263;99056;-80
2023/12/01 04:45:17;;;;;;;85.00;36.00;;;;;;;-3.32;76.42;98947.72;129956;1267;98070;-79
2023/12/01 04:48:23;;;;;;;81.80;35.80;;;;;;;-3.25;76.54;98941.02;130065;1265;97977;-80
2023/12/01 04:51:28;;;;;;;84.10;37.00;;;;;;;-3.16;76.58;98935.75;130042;1267;99173;-80
2023/12/01 04:54:36;;;;;;;82.00;35.10;;;;;;;-3.02;76.67;98939.34;130009;1267;97990;-79
2023/12/01 04:57:42;;;;;;;82.50;34.30;;;;;;;-2.87;76.55;98932.45;130054;1268;98060;-76
2023/12/01 05:00:47;;;;;;;85.20;36.30;;;;;;;-2.73;76.96;98933.66;130019;1264;97998;-81
2023/12/01 05:03:53;;;;;;;87.10;36.20;;;;;;;-2.61;76.84;98932.17;130229;1268;97998;-81
2023/12/01 05:06:59;;;;;;;83.00;35.30;;;;;;;-2.51;76.83;98936.51;130288;1263;98054;-81
2023/12/01 05:10:08;;;;;;;80.70;36.20;;;;;;;-2.42;77.17;98938.84;130352;1267;98065;-80
2023/12/01 05:13:14;;;;;;;103.60;44.30;;;;;;;-2.36;77.18;98942.84;130455;1263;99043;-80
2023/12/01 05:16:20;;;;;;;94.90;41.20;;;;;;;-2.26;77.54;98945.61;130214;1267;99038;-81
2023/12/01 05:19:27;;;;;;;112.50;49.20;;;;;;;-2.18;77.49;98947.02;130030;1264;99158;-81
2023/12/01 05:22:33;;;;;;;108.10;48.00;;;;;;;-2.13;77.49;98953.80;130300;1265;99186;-81
2023/12/01 05:25:41;;;;;;;93.70;40.90;;;;;;;-2.09;77.39;98953.55;130211;1264;98130;-80
2023/12/01 05:28:46;;;;;;;89.90;39.00;;;;;;;-2.07;77.40;98955.86;130054;1265;99183;-80
2023/12/01 05:31:52;;;;;;;87.40;38.10;;;;;;;-2.05;77.71;98962.67;129978;1264;99154;-79
2023/12/01 05:34:57;;;;;;;88.60;38.30;;;;;;;-2.02;77.61;98971.86;130071;1266;98032;-79
2023/12/01 05:38:04;;;;;;;87.20;39.70;;;;;;;-1.99;77.70;98984.04;130041;1263;98078;-80
2023/12/01 05:41:10;;;;;;;96.30;42.50;;;;;;;-1.95;77.83;98987.65;130007;1264;98469;-79
2023/12/01 05:44:15;;;;;;;188.90;82.30;;;;;;;-1.93;77.58;98988.37;129968;1268;99151;-80
2023/12/01 05:47:22;;;;;;;101.00;42.20;;;;;;;-1.97;77.90;98994.03;130010;1266;99039;-80
2023/12/01 05:50:29;;;;;;;309.30;114.40;;;;;;;-2.00;77.95;99000.00;130137;1267;97986;-80
2023/12/01 05:53:35;;;;;;;296.40;106.70;;;;;;;-1.99;78.09;99003.23;130066;1267;99179;-79
2023/12/01 05:56:41;;;;;;;194.60;69.00;;;;;;;-1.95;78.11;99012.39;130032;1264;99158;-80
2023/12/01 05:59:46;;;;;;;246.50;83.60;;;;;;;-1.91;78.17;99016.45;130168;1264;98067;-79
2023/12/01 06:02:53;;;;;;;765.90;275.70;;;;;;;-1.83;78.24;99018.36;130181;1264;98030;-79
2023/12/01 06:05:58;;;;;;;132.40;54.60;;;;;;;-1.80;77.83;99026.67;130091;1267;98116;-78
2023/12/01 06:09:04;;;;;;;95.40;41.20;;;;;;;-1.99;78.20;99027.47;130310;1267;97971;-79
2023/12/01 06:12:10;;;;;;;108.70;48.90;;;;;;;-2.27;78.97;99027.88;130201;1263;98006;-78
2023/12/01 06:15:18;;;;;;;116.40;48.90;;;;;;;-2.54;79.20;99034.42;130194;1267;98073;-80
2023/12/01 06:18:23;;;;;;;115.90;48.10;;;;;;;-2.55;79.45;99025.63;130223;1263;97966;-79
2023/12/01 06:21:29;;;;;;;95.30;40.60;;;;;;;-2.51;79.31;99023.27;130553;1267;98051;-80
2023/12/01 06:24:35;;;;;;;92.30;40.00;;;;;;;-2.67;79.21;99015.23;130288;1264;98067;-79
2023/12/01 06:27:41;;;;;;;90.40;39.80;;;;;;;-2.86;79.43;99016.61;130222;1268;98076;-77
2023/12/01 06:30:47;;;;;;;84.60;36.30;;;;;;;-2.97;79.80;99014.20;130228;1267;99074;-79
2023/12/01 06:33:52;;;;;;;80.10;36.50;;;;;;;-3.07;79.56;99013.65;130393;1264;97993;-78
2023/12/01 06:36:59;;;;;;;77.90;34.80;;;;;;;-3.14;79.51;99020.84;130301;1263;97977;-79
2023/12/01 06:40:11;;;;;;;83.40;35.80;;;;;;;-3.21;80.06;99020.05;130261;1268;98047;-78
2023/12/01 06:43:18;;;;;;;80.20;35.00;;;;;;;-3.31;80.32;99022.42;130025;1265;98033;-81
2023/12/01 06:46:23;;;;;;;66.20;29.10;;;;;;;-3.33;80.22;99021.02;129932;1267;99338;-78
2023/12/01 06:49:29;;;;;;;78.30;34.00;;;;;;;-3.26;80.78;99020.91;130087;1266;97987;-77
2023/12/01 06:52:35;;;;;;;95.20;39.00;;;;;;;-3.32;80.69;99026.85;130052;1267;99157;-79
2023/12/01 06:55:41;;;;;;;85.60;34.70;;;;;;;-3.37;80.89;99030.44;130208;1280;99182;-80
2023/12/01 06:58:46;;;;;;;135.00;47.50;;;;;;;-3.27;80.78;99037.80;130052;1264;98028;-80
2023/12/01 07:01:52;;;;;;;89.30;37.70;;;;;;;-3.09;80.24;99044.72;130238;1265;97977;-79
2023/12/01 07:04:58;;;;;;;82.30;35.40;;;;;;;-3.12;79.83;99044.01;130308;1268;98653;-80
2023/12/01 07:08:05;;;;;;;80.20;34.30;;;;;;;-3.13;80.25;99036.10;130388;1267;98000;-81
2023/12/01 07:11:10;;;;;;;615.00;181.40;;;;;;;-3.05;80.36;99038.00;130455;1267;97968;-80
2023/12/01 07:14:16;;;;;;;387.60;103.30;;;;;;;-2.90;80.41;99039.71;130341;1264;98624;-80
2023/12/01 07:17:22;;;;;;;469.50;120.70;;;;;;;-2.79;80.02;99046.09;130525;1268;97981;-81
2023/12/01 07:20:28;;;;;;;1343.10;494.10;;;;;;;-2.71;80.16;99043.54;130452;1264;99190;-80
2023/12/01 07:23:33;;;;;;;1319.00;512.70;;;;;;;-2.58;80.23;99041.29;130376;1268;99135;-78
2023/12/01 07:26:39;;;;;;;365.30;121.40;;;;;;;-2.45;79.88;99041.44;130375;1263;99074;-79
2023/12/01 07:29:44;;;;;;;122.60;49.90;;;;;;;-2.31;79.86;99039.70;129922;1266;98182;-79
2023/12/01 07:32:51;;;;;;;140.30;58.10;;;;;;;-2.25;79.49;99041.55;130040;1263;98974;-82
2023/12/01 07:35:57;;;;;;;394.30;174.60;;;;;;;-2.17;79.71;99034.61;130118;1278;99160;-78
2023/12/01 07:39:02;;;;;;;131.50;54.20;;;;;;;-2.06;79.64;99029.11;130404;1264;98056;-78
2023/12/01 07:42:08;;;;;;;95.70;38.90;;;;;;;-2.07;79.56;99038.95;130053;1267;99160;-78
2023/12/01 07:45:17;;;;;;;108.00;41.80;;;;;;;-2.22;79.56;99041.86;130252;1264;97963;-78
2023/12/01 07:48:22;;;;;;;91.40;37.60;;;;;;;-2.20;80.22;99043.84;130012;1264;98006;-77
2023/12/01 07:51:28;;;;;;;90.90;38.70;;;;;;;-2.13;79.82;99044.63;129991;1264;97994;-80
2023/12/01 07:54:33;;;;;;;103.40;41.70;;;;;;;-2.11;79.95;99058.38;130051;1267;97987;-79
2023/12/01 07:57:39;;;;;;;89.10;38.20;;;;;;;-2.01;80.24;99069.55;130059;1264;99083;-80
2023/12/01 08:00:45;;;;;;;89.40;37.90;;;;;;;-1.93;80.14;99062.09;130013;1264;97948;-77
2023/12/01 08:03:50;;;;;;;93.70;39.00;;;;;;;-1.86;79.97;99053.93;130091;1267;99046;-76
2023/12/01 08:06:56;;;;;;;128.40;47.00;;;;;;;-1.80;79.89;99050.91;129903;1267;99190;-80
2023/12/01 08:10:02;;;;;;;103.10;38.90;;;;;;;-1.73;79.76;99051.88;130346;1267;98019;-78
2023/12/01 08:13:08;;;;;;;221.00;95.80;;;;;;;-1.66;79.72;99048.74;130150;1267;98768;-79
2023/12/01 08:16:14;;;;;;;120.30;52.10;;;;;;;-1.52;79.88;99054.22;130143;1263;98069;-78
2023/12/01 08:19:19;;;;;;;79.80;33.10;;;;;;;-1.36;80.07;99057.34;130065;1264;99044;-79
2023/12/01 08:22:25;;;;;;;82.20;34.20;;;;;;;-1.21;79.68;99060.64;130208;1268;98652;-78
2023/12/01 08:25:31;;;;;;;82.60;35.50;;;;;;;-1.12;79.46;99072.27;130107;1265;98035;-79
2023/12/01 08:28:36;;;;;;;79.60;34.00;;;;;;;-1.05;79.43;99068.61;130109;1268;98038;-79
2023/12/01 08:31:45;;;;;;;74.40;33.80;;;;;;;-1.00;79.34;99070.47;130136;1264;98016;-79
2023/12/01 08:34:51;;;;;;;107.10;52.60;;;;;;;-0.97;79.25;99076.91;130234;1265;98972;-78
2023/12/01 08:37:57;;;;;;;80.40;38.70;;;;;;;-0.92;79.15;99071.36;130218;1266;98197;-82
2023/12/01 08:41:02;;;;;;;110.90;55.40;;;;;;;-0.90;79.19;99079.05;130611;1265;98063;-78
2023/12/01 08:44:08;;;;;;;135.20;56.90;;;;;;;-0.89;79.16;99086.14;130131;1279;99055;-79
2023/12/01 08:47:15;;;;;;;101.40;40.60;;;;;;;-1.03;78.28;99083.65;130298;1264;99103;-78
2023/12/01 08:50:21;;;;;;;78.50;35.20;;;;;;;-1.23;78.50;99077.67;130088;1267;99204;-79
2023/12/01 08:53:28;;;;;;;85.30;36.50;;;;;;;-1.36;78.59;99087.86;130063;1264;99046;-79
2023/12/01 08:56:34;;;;;;;83.80;34.90;;;;;;;-1.41;78.83;99090.44;130328;1268;97997;-80
2023/12/01 08:59:40;;;;;;;77.20;34.40;;;;;;;-1.37;79.01;99100.98;130374;1264;98049;-80
2023/12/01 09:02:46;;;;;;;106.80;42.00;;;;;;;-1.43;78.38;99100.52;130344;1264;98453;-80
2023/12/01 09:05:51;;;;;;;99.10;38.60;;;;;;;-1.50;78.95;99102.61;130653;1264;97994;-79
2023/12/01 09:08:57;;;;;;;78.40;34.00;;;;;;;-1.43;79.05;99103.67;130421;1265;98667;-81
2023/12/01 09:12:02;;;;;;;107.90;40.80;;;;;;;-1.39;78.95;99106.23;130164;1267;97994;-79
2023/12/01 09:15:10;;;;;;;85.00;34.80;;;;;;;-1.35;78.92;99100.17;130005;1264;99160;-79
2023/12/01 09:18:15;;;;;;;241.40;75.70;;;;;;;-1.45;78.83;99106.10;130013;1268;99151;-79
2023/12/01 09:21:22;;;;;;;78.00;33.10;;;;;;;-1.51;78.58;99110.66;130044;1267;98064;-80
2023/12/01 09:24:28;;;;;;;65.10;29.20;;;;;;;-1.64;78.16;99121.48;130040;1268;98067;-78
2023/12/01 09:27:34;;;;;;;80.30;37.80;;;;;;;-1.78;78.54;99123.29;130116;1265;98097;-77
2023/12/01 09:30:39;;;;;;;276.10;87.40;;;;;;;-1.77;78.46;99125.00;130014;1268;98126;-78
2023/12/01 09:33:45;;;;;;;132.10;47.60;;;;;;;-1.65;79.09;99118.45;129944;1267;98068;-77
2023/12/01 09:37:26;;;;;;;118.60;50.40;;;;;;;-1.41;79.45;99121.52;130155;1265;99176;-76
2023/12/01 09:40:31;;;;;;;90.10;38.70;;;;;;;-1.15;78.71;99121.85;129748;1268;98041;-78
2023/12/01 09:43:38;;;;;;;71.80;31.60;;;;;;;-1.06;78.71;99132.17;130769;1267;98077;-77
2023/12/01 09:46:48;;;;;;;67.20;29.30;;;;;;;-1.02;78.15;99137.98;129531;1270;98198;-77
2023/12/01 09:49:54;;;;;;;80.30;39.00;;;;;;;-0.93;78.70;99128.35;129584;1268;98262;-76
2023/12/01 09:53:00;;;;;;;72.50;35.60;;;;;;;-0.78;78.74;99121.14;129496;1268;99254;-77
2023/12/01 09:56:08;;;;;;;90.30;41.10;;;;;;;-0.65;78.63;99111.67;129630;1270;98163;-76
2023/12/01 09:59:16;;;;;;;153.30;71.00;;;;;;;-0.58;78.53;99114.30;129709;1267;99156;-77
2023/12/01 10:02:21;;;;;;;81.00;38.60;;;;;;;-0.50;78.58;99109.55;129541;1271;99398;-76
2023/12/01 10:05:28;;;;;;;62.90;29.40;;;;;;;-0.43;78.20;99111.08;129647;1268;97990;-76
2023/12/01 10:08:36;;;;;;;67.50;30.20;;;;;;;-0.46;78.18;99112.58;129534;1268;98159;-77
2023/12/01 10:11:41;;;;;;;66.20;31.60;;;;;;;-0.60;76.95;99121.11;129893;1264;98374;-77
2023/12/01 10:14:47;;;;;;;212.70;67.10;;;;;;;-0.87;77.12;99125.60;129904;1265;98087;-76
2023/12/01 10:17:55;;;;;;;447.60;155.90;;;;;;;-0.94;78.33;99129.45;129840;1268;98044;-77
2023/12/01 10:21:14;;;;;;;881.10;298.90;;;;;;;-0.79;78.49;99131.02;129740;1264;99186;-77
2023/12/01 10:24:21;;;;;;;251.00;79.40;;;;;;;-0.69;78.12;99130.11;129819;1268;97968;-77
2023/12/01 10:27:29;;;;;;;519.30;178.40;;;;;;;-0.70;78.36;99117.94;129814;1264;98724;-77
2023/12/01 10:30:34;;;;;;;327.20;104.70;;;;;;;-0.52;78.38;99120.66;129995;1264;97974;-76
2023/12/01 10:33:42;;;;;;;444.40;155.60;;;;;;;-0.34;78.49;99110.69;129827;1268;99074;-78
2023/12/01 10:36:48;;;;;;;677.90;237.10;;;;;;;-0.23;78.18;99106.01;129897;1266;98118;-76
2023/12/01 10:39:55;;;;;;;741.40;255.70;;;;;;;-0.10;78.04;99116.64;129913;1265;97970;-77
2023/12/01 10:43:02;;;;;;;190.00;59.10;;;;;;;-0.00;77.68;99118.84;129863;1268;98061;-77
2023/12/01 10:46:11;;;;;;;270.30;82.30;;;;;;;-0.03;77.60;99121.63;129991;1268;99095;-77
2023/12/01 10:49:17;;;;;;;207.80;66.30;;;;;;;-0.02;77.40;99120.52;129867;1268;99140;-77
2023/12/01 10:52:24;;;;;;;106.80;40.40;;;;;;;-0.15;77.40;99107.68;129820;1268;99043;-78
2023/12/01 10:55:29;;;;;;;1031.70;411.00;;;;;;;-0.29;77.38;99112.23;129821;1268;99190;-78
2023/12/01 10:58:35;;;;;;;316.90;102.30;;;;;;;-0.35;77.90;99114.39;129784;1265;97998;-76
2023/12/01 11:01:42;;;;;;;130.30;45.90;;;;;;;-0.36;77.74;99116.20;129737;1268;97956;-76
2023/12/01 11:04:48;;;;;;;135.50;52.90;;;;;;;-0.38;78.07;99114.30;129883;1268;99112;-78
2023/12/01 11:08:06;;;;;;;385.80;180.50;;;;;;;-0.31;78.16;99106.05;129955;1264;98651;-76
2023/12/01 11:11:24;;;;;;;161.40;64.20;;;;;;;-0.23;78.02;99104.24;129922;1264;97987;-77
2023/12/01 11:14:31;;;;;;;147.40;65.20;;;;;;;-0.17;77.95;99101.74;130177;1265;98000;-76
2023/12/01 11:17:37;;;;;;;80.30;37.80;;;;;;;-0.15;77.64;99108.77;131027;1263;99067;-78
2023/12/01 11:20:46;;;;;;;74.60;32.20;;;;;;;-0.20;77.42;99105.59;130199;1268;97990;-77
2023/12/01 11:23:52;;;;;;;63.40;30.30;;;;;;;-0.35;76.71;99118.41;129941;1264;98000;-78
2023/12/01 11:27:04;;;;;;;63.70;31.00;;;;;;;-0.48;77.25;99114.83;129889;1268;99183;-77
2023/12/01 11:30:12;;;;;;;66.90;31.70;;;;;;;-0.58;77.44;99121.46;130034;1267;97997;-78
2023/12/01 11:33:31;;;;;;;66.90;31.70;;;;;;;-0.54;77.80;99131.34;129968;1265;98038;-78
2023/12/01 11:36:37;;;;;;;67.90;30.50;;;;;;;-0.51;77.48;99127.05;129910;1263;98949;-77
2023/12/01 11:39:43;;;;;;;90.40;42.10;;;;;;;-0.47;77.93;99121.71;130418;1264;98061;-79
2023/12/01 11:42:51;;;;;;;72.80;32.60;;;;;;;-0.36;77.94;99118.98;130148;1264;98968;-78
2023/12/01 11:46:10;;;;;;;67.10;28.30;;;;;;;-0.20;77.86;99129.56;130485;1267;98735;-77
2023/12/01 11:49:16;;;;;;;75.10;32.60;;;;;;;-0.13;77.43;99131.69;130103;1265;98003;-81
2023/12/01 11:52:22;;;;;;;78.70;37.70;;;;;;;-0.11;77.64;99122.95;130114;1263;98041;-77
2023/12/01 11:55:29;;;;;;;96.30;41.40;;;;;;;0.03;77.74;99120.73;130097;1266;98061;-78
2023/12/01 11:58:34;;;;;;;69.60;33.10;;;;;;;0.07;77.29;99121.61;129899;1264;271487;-80
2023/12/01 12:01:40;;;;;;;72.20;33.50;;;;;;;-0.04;76.82;99112.09;130040;1266;98067;-80
2023/12/01 12:04:48;;;;;;;71.70;33.50;;;;;;;-0.17;76.91;99116.42;130100;1268;97974;-78
2023/12/01 12:07:55;;;;;;;203.00;75.90;;;;;;;-0.33;77.10;99119.30;130553;1265;98641;-80
2023/12/01 12:11:01;;;;;;;119.50;49.20;;;;;;;-0.31;77.96;99120.23;130084;1264;98594;-80
2023/12/01 12:14:06;;;;;;;74.30;34.80;;;;;;;-0.23;77.52;99119.30;130257;1264;97959;-76
2023/12/01 12:17:12;;;;;;;79.70;36.80;;;;;;;-0.36;77.25;99120.05;130329;1263;97993;-76
2023/12/01 12:20:24;;;;;;;77.50;34.80;;;;;;;-0.43;77.79;99119.52;130280;1268;98754;-78
2023/12/01 12:23:30;;;;;;;66.60;32.40;;;;;;;-0.50;77.40;99118.45;130263;1265;98067;-78
2023/12/01 12:26:36;;;;;;;80.70;37.60;;;;;;;-0.55;77.43;99122.48;130259;1268;98452;-79
2023/12/01 12:29:41;;;;;;;87.60;37.10;;;;;;;-0.61;77.77;99120.11;130163;1267;99250;-78
2023/12/01 12:32:49;;;;;;;89.80;37.90;;;;;;;-0.57;78.16;99126.44;131199;1264;99043;-79
2023/12/01 12:35:55;;;;;;;85.60;37.40;;;;;;;-0.51;77.99;99117.45;129954;1265;97992;-77
2023/12/01 12:39:03;;;;;;;83.70;35.70;;;;;;;-0.56;77.76;99121.54;129988;1265;98967;-78
2023/12/01 12:42:15;;;;;;;70.10;31.70;;;;;;;-0.63;77.74;99120.06;130060;1264;98012;-77
2023/12/01 12:45:22;;;;;;;85.40;35.90;;;;;;;-0.64;78.14;99115.59;130518;1266;97947;-79
2023/12/01 12:48:28;;;;;;;70.50;32.70;;;;;;;-0.55;78.30;99110.09;130007;1268;98012;-77
2023/12/01 12:51:33;;;;;;;70.30;33.00;;;;;;;-0.45;78.35;99113.38;130241;1263;97976;-78
2023/12/01 12:54:40;;;;;;;69.70;33.50;;;;;;;-0.31;78.11;99117.93;130329;1264;97998;-78
2023/12/01 12:57:46;;;;;;;76.80;33.50;;;;;;;-0.22;77.96;99115.90;129900;1263;98045;-77
2023/12/01 13:00:53;;;;;;;81.00;38.50;;;;;;;-0.27;77.41;99121.67;130201;1268;97998;-78
2023/12/01 13:03:58;;;;;;;120.40;50.10;;;;;;;-0.35;77.62;99123.33;130215;1263;98011;-77
2023/12/01 13:07:08;;;;;;;110.30;47.40;;;;;;;-0.34;77.96;99130.59;130275;1264;98672;-79
2023/12/01 13:10:14;;;;;;;84.70;39.20;;;;;;;-0.28;78.05;99135.39;130259;1264;98648;-77
2023/12/01 13:13:20;;;;;;;68.20;32.50;;;;;;;-0.23;78.02;99134.34;130054;1263;98076;-78
2023/12/01 13:16:26;;;;;;;71.10;33.70;;;;;;;-0.23;77.98;99132.20;130776;1265;99170;-77
2023/12/01 13:19:31;;;;;;;95.30;43.20;;;;;;;-0.19;78.10;99119.72;130151;1267;98766;-76
2023/12/01 13:22:37;;;;;;;197.40;86.80;;;;;;;-0.18;77.90;99120.30;130495;1268;99183;-79
2023/12/01 13:25:43;;;;;;;129.70;62.70;;;;;;;-0.18;77.77;99122.42;130156;1268;98657;-78
2023/12/01 13:28:48;;;;;;;88.10;39.60;;;;;;;-0.20;77.89;99119.94;130345;1264;98083;-81
2023/12/01 13:31:54;;;;;;;95.90;45.90;;;;;;;-0.23;77.61;99122.77;130093;1263;98334;-78
2023/12/01 13:34:59;;;;;;;79.90;37.60;;;;;;;-0.42;77.33;99121.55;129880;1266;97975;-80
2023/12/01 13:38:07;;;;;;;179.80;79.10;;;;;;;-0.58;77.58;99124.63;129709;1268;99297;-81
2023/12/01 13:41:12;;;;;;;117.00;50.80;;;;;;;-0.71;77.50;99125.38;129917;1268;98068;-77
2023/12/01 13:44:18;;;;;;;86.70;39.30;;;;;;;-0.81;77.79;99126.75;130287;1264;99157;-76
2023/12/01 13:47:24;;;;;;;108.00;54.20;;;;;;;-0.89;77.93;99127.14;130256;1265;97993;-78
2023/12/01 13:50:30;;;;;;;75.30;33.00;;;;;;;-0.91;78.10;99132.20;130196;1268;98654;-78
2023/12/01 13:53:35;;;;;;;58.10;27.20;;;;;;;-0.87;78.02;99140.45;129982;1268;98648;-77
2023/12/01 13:56:41;;;;;;;79.10;35.70;;;;;;;-0.83;78.21;99144.56;130138;1275;98393;-78
2023/12/01 13:59:47;;;;;;;73.40;35.10;;;;;;;-0.78;78.27;99149.27;129960;1266;98068;-77
2023/12/01 14:02:52;;;;;;;77.70;34.10;;;;;;;-0.69;78.21;99145.33;130118;1264;99061;-77
2023/12/01 14:05:58;;;;;;;73.80;33.20;;;;;;;-0.64;78.31;99141.42;130105;1265;97986;-77